sensor_id;sensor_type;location;lat;lon;timestamp;P1;durP1;ratioP1;P2;durP2;ratioP2
66626;SDS011;53498;50.422;14.912;2023-08-24T00:01:09;4.60;;;4.15;;
66626;SDS011;53498;50.422;14.912;2023-08-24T00:03:37;6.22;;;4.80;;
66626;SDS011;53498;50.422;14.912;2023-08-24T00:06:03;5.75;;;4.55;;
66626;SDS011;53498;50.422;14.912;2023-08-24T00:08:28;5.07;;;4.28;;
66626;SDS011;53498;50.422;14.912;2023-08-24T00:10:54;4.97;;;4.05;;
66626;SDS011;53498;50.422;14.912;2023-08-24T00:13:20;4.85;;;4.35;;
66626;SDS011;53498;50.422;14.912;2023-08-24T00:15:45;4.75;;;4.35;;
66626;SDS011;53498;50.422;14.912;2023-08-24T00:18:11;5.88;;;4.10;;
66626;SDS011;53498;50.422;14.912;2023-08-24T00:20:37;5.47;;;4.22;;
66626;SDS011;53498;50.422;14.912;2023-08-24T00:23:03;4.90;;;4.20;;
66626;SDS011;53498;50.422;14.912;2023-08-24T00:25:29;4.57;;;4.10;;
66626;SDS011;53498;50.422;14.912;2023-08-24T00:27:56;5.22;;;4.07;;
66626;SDS011;53498;50.422;14.912;2023-08-24T00:30:22;6.50;;;4.28;;
66626;SDS011;53498;50.422;14.912;2023-08-24T00:32:48;4.47;;;4.03;;
66626;SDS011;53498;50.422;14.912;2023-08-24T00:35:14;5.07;;;4.05;;
66626;SDS011;53498;50.422;14.912;2023-08-24T00:37:40;7.60;;;4.43;;
66626;SDS011;53498;50.422;14.912;2023-08-24T00:40:06;5.53;;;4.93;;
66626;SDS011;53498;50.422;14.912;2023-08-24T00:42:39;5.43;;;4.30;;
66626;SDS011;53498;50.422;14.912;2023-08-24T00:45:06;5.68;;;4.03;;
66626;SDS011;53498;50.422;14.912;2023-08-24T00:47:40;4.85;;;4.45;;
66626;SDS011;53498;50.422;14.912;2023-08-24T00:50:07;4.97;;;4.05;;
66626;SDS011;53498;50.422;14.912;2023-08-24T00:52:35;5.15;;;4.25;;
66626;SDS011;53498;50.422;14.912;2023-08-24T00:55:04;6.97;;;5.18;;
66626;SDS011;53498;50.422;14.912;2023-08-24T00:57:30;5.88;;;3.95;;
66626;SDS011;53498;50.422;14.912;2023-08-24T00:59:57;6.10;;;4.35;;
66626;SDS011;53498;50.422;14.912;2023-08-24T01:02:24;4.13;;;3.72;;
66626;SDS011;53498;50.422;14.912;2023-08-24T01:04:50;6.05;;;4.57;;
66626;SDS011;53498;50.422;14.912;2023-08-24T01:07:17;5.18;;;4.68;;
66626;SDS011;53498;50.422;14.912;2023-08-24T01:09:43;5.18;;;4.32;;
66626;SDS011;53498;50.422;14.912;2023-08-24T01:15:09;7.55;;;4.32;;
66626;SDS011;53498;50.422;14.912;2023-08-24T01:17:44;4.72;;;4.32;;
66626;SDS011;53498;50.422;14.912;2023-08-24T01:20:12;7.13;;;5.25;;
66626;SDS011;53498;50.422;14.912;2023-08-24T01:25:32;4.70;;;4.20;;
66626;SDS011;53498;50.422;14.912;2023-08-24T01:28:04;5.00;;;4.27;;
66626;SDS011;53498;50.422;14.912;2023-08-24T01:30:31;5.43;;;4.18;;
66626;SDS011;53498;50.422;14.912;2023-08-24T01:32:56;5.72;;;4.35;;
66626;SDS011;53498;50.422;14.912;2023-08-24T01:35:22;7.50;;;4.45;;
66626;SDS011;53498;50.422;14.912;2023-08-24T01:37:47;4.97;;;4.20;;
66626;SDS011;53498;50.422;14.912;2023-08-24T01:40:17;4.80;;;4.32;;
66626;SDS011;53498;50.422;14.912;2023-08-24T01:42:56;4.97;;;4.35;;
66626;SDS011;53498;50.422;14.912;2023-08-24T01:45:29;4.72;;;4.30;;
66626;SDS011;53498;50.422;14.912;2023-08-24T01:48:01;4.65;;;4.25;;
66626;SDS011;53498;50.422;14.912;2023-08-24T01:50:30;5.13;;;4.60;;
66626;SDS011;53498;50.422;14.912;2023-08-24T01:52:57;5.93;;;4.25;;
66626;SDS011;53498;50.422;14.912;2023-08-24T01:55:22;4.45;;;4.05;;
66626;SDS011;53498;50.422;14.912;2023-08-24T01:57:48;4.40;;;4.00;;
66626;SDS011;53498;50.422;14.912;2023-08-24T02:00:14;7.45;;;5.03;;
66626;SDS011;53498;50.422;14.912;2023-08-24T02:02:44;7.28;;;4.75;;
66626;SDS011;53498;50.422;14.912;2023-08-24T02:05:09;7.05;;;5.50;;
66626;SDS011;53498;50.422;14.912;2023-08-24T02:07:35;13.90;;;6.28;;
66626;SDS011;53498;50.422;14.912;2023-08-24T02:10:01;10.02;;;6.22;;
66626;SDS011;53498;50.422;14.912;2023-08-24T02:12:26;9.02;;;6.47;;
66626;SDS011;53498;50.422;14.912;2023-08-24T02:14:52;8.02;;;5.63;;
66626;SDS011;53498;50.422;14.912;2023-08-24T02:17:18;9.45;;;5.60;;
66626;SDS011;53498;50.422;14.912;2023-08-24T02:19:43;5.32;;;4.82;;
66626;SDS011;53498;50.422;14.912;2023-08-24T02:22:09;7.60;;;5.45;;
66626;SDS011;53498;50.422;14.912;2023-08-24T02:24:34;7.55;;;5.05;;
66626;SDS011;53498;50.422;14.912;2023-08-24T02:27:00;7.82;;;5.80;;
66626;SDS011;53498;50.422;14.912;2023-08-24T02:29:26;5.45;;;4.38;;
66626;SDS011;53498;50.422;14.912;2023-08-24T02:31:53;6.97;;;4.97;;
66626;SDS011;53498;50.422;14.912;2023-08-24T02:34:18;6.25;;;5.35;;
66626;SDS011;53498;50.422;14.912;2023-08-24T02:36:44;5.32;;;4.70;;
66626;SDS011;53498;50.422;14.912;2023-08-24T02:39:10;5.55;;;4.47;;
66626;SDS011;53498;50.422;14.912;2023-08-24T02:41:35;6.38;;;5.30;;
66626;SDS011;53498;50.422;14.912;2023-08-24T02:44:01;6.25;;;4.68;;
66626;SDS011;53498;50.422;14.912;2023-08-24T02:46:27;7.75;;;4.60;;
66626;SDS011;53498;50.422;14.912;2023-08-24T02:48:53;6.82;;;5.22;;
66626;SDS011;53498;50.422;14.912;2023-08-24T02:51:21;5.50;;;4.70;;
66626;SDS011;53498;50.422;14.912;2023-08-24T02:53:47;5.18;;;4.68;;
66626;SDS011;53498;50.422;14.912;2023-08-24T02:56:14;7.53;;;4.47;;
66626;SDS011;53498;50.422;14.912;2023-08-24T02:58:39;5.68;;;5.00;;
66626;SDS011;53498;50.422;14.912;2023-08-24T03:01:05;7.38;;;5.00;;
66626;SDS011;53498;50.422;14.912;2023-08-24T03:03:35;5.28;;;4.72;;
66626;SDS011;53498;50.422;14.912;2023-08-24T03:06:02;5.07;;;4.45;;
66626;SDS011;53498;50.422;14.912;2023-08-24T03:08:29;5.78;;;4.45;;
66626;SDS011;53498;50.422;14.912;2023-08-24T03:10:57;7.47;;;5.10;;
66626;SDS011;53498;50.422;14.912;2023-08-24T03:13:24;7.28;;;4.80;;
66626;SDS011;53498;50.422;14.912;2023-08-24T03:15:50;5.53;;;4.93;;
66626;SDS011;53498;50.422;14.912;2023-08-24T03:18:16;5.88;;;5.25;;
66626;SDS011;53498;50.422;14.912;2023-08-24T03:20:42;6.93;;;5.35;;
66626;SDS011;53498;50.422;14.912;2023-08-24T03:23:08;8.10;;;5.10;;
66626;SDS011;53498;50.422;14.912;2023-08-24T03:25:37;6.28;;;5.43;;
66626;SDS011;53498;50.422;14.912;2023-08-24T03:28:05;5.85;;;5.25;;
66626;SDS011;53498;50.422;14.912;2023-08-24T03:30:32;9.00;;;6.50;;
66626;SDS011;53498;50.422;14.912;2023-08-24T03:32:59;7.38;;;5.20;;
66626;SDS011;53498;50.422;14.912;2023-08-24T03:35:25;8.35;;;5.97;;
66626;SDS011;53498;50.422;14.912;2023-08-24T03:37:50;6.55;;;5.93;;
66626;SDS011;53498;50.422;14.912;2023-08-24T03:40:16;5.60;;;5.07;;
66626;SDS011;53498;50.422;14.912;2023-08-24T03:42:42;6.22;;;4.97;;
66626;SDS011;53498;50.422;14.912;2023-08-24T03:45:08;5.85;;;4.93;;
66626;SDS011;53498;50.422;14.912;2023-08-24T03:47:33;5.57;;;4.68;;
66626;SDS011;53498;50.422;14.912;2023-08-24T03:49:59;8.65;;;5.35;;
66626;SDS011;53498;50.422;14.912;2023-08-24T03:52:28;6.15;;;5.03;;
66626;SDS011;53498;50.422;14.912;2023-08-24T03:54:54;7.57;;;5.30;;
66626;SDS011;53498;50.422;14.912;2023-08-24T03:57:19;6.45;;;5.85;;
66626;SDS011;53498;50.422;14.912;2023-08-24T03:59:45;5.63;;;5.13;;
66626;SDS011;53498;50.422;14.912;2023-08-24T04:02:11;6.45;;;5.47;;
66626;SDS011;53498;50.422;14.912;2023-08-24T04:04:36;7.35;;;5.57;;
66626;SDS011;53498;50.422;14.912;2023-08-24T04:07:02;5.85;;;5.15;;
66626;SDS011;53498;50.422;14.912;2023-08-24T04:09:28;5.35;;;4.72;;
66626;SDS011;53498;50.422;14.912;2023-08-24T04:11:54;5.68;;;4.68;;
66626;SDS011;53498;50.422;14.912;2023-08-24T04:14:19;6.32;;;5.07;;
66626;SDS011;53498;50.422;14.912;2023-08-24T04:16:45;6.47;;;5.30;;
66626;SDS011;53498;50.422;14.912;2023-08-24T04:19:14;7.30;;;5.25;;
66626;SDS011;53498;50.422;14.912;2023-08-24T04:21:39;6.40;;;5.22;;
66626;SDS011;53498;50.422;14.912;2023-08-24T04:24:05;6.25;;;5.32;;
66626;SDS011;53498;50.422;14.912;2023-08-24T04:26:31;7.53;;;5.32;;
66626;SDS011;53498;50.422;14.912;2023-08-24T04:28:57;7.68;;;5.22;;
66626;SDS011;53498;50.422;14.912;2023-08-24T04:31:22;6.53;;;5.45;;
66626;SDS011;53498;50.422;14.912;2023-08-24T04:33:48;7.93;;;5.60;;
66626;SDS011;53498;50.422;14.912;2023-08-24T04:36:13;7.45;;;5.45;;
66626;SDS011;53498;50.422;14.912;2023-08-24T04:38:39;5.90;;;5.30;;
66626;SDS011;53498;50.422;14.912;2023-08-24T04:41:06;7.07;;;6.10;;
66626;SDS011;53498;50.422;14.912;2023-08-24T04:43:33;6.00;;;5.30;;
66626;SDS011;53498;50.422;14.912;2023-08-24T04:45:59;6.50;;;5.00;;
66626;SDS011;53498;50.422;14.912;2023-08-24T04:48:25;7.63;;;5.60;;
66626;SDS011;53498;50.422;14.912;2023-08-24T04:50:58;6.13;;;5.35;;
66626;SDS011;53498;50.422;14.912;2023-08-24T04:53:24;6.78;;;5.07;;
66626;SDS011;53498;50.422;14.912;2023-08-24T04:55:50;6.20;;;5.28;;
66626;SDS011;53498;50.422;14.912;2023-08-24T04:58:15;8.10;;;5.78;;
66626;SDS011;53498;50.422;14.912;2023-08-24T05:00:41;10.95;;;6.10;;
66626;SDS011;53498;50.422;14.912;2023-08-24T05:03:07;8.73;;;6.22;;
66626;SDS011;53498;50.422;14.912;2023-08-24T05:05:33;8.07;;;5.30;;
66626;SDS011;53498;50.422;14.912;2023-08-24T05:08:00;7.85;;;5.43;;
66626;SDS011;53498;50.422;14.912;2023-08-24T05:10:29;6.55;;;5.32;;
66626;SDS011;53498;50.422;14.912;2023-08-24T05:12:55;9.32;;;5.82;;
66626;SDS011;53498;50.422;14.912;2023-08-24T05:15:21;7.65;;;5.88;;
66626;SDS011;53498;50.422;14.912;2023-08-24T05:17:47;6.45;;;5.35;;
66626;SDS011;53498;50.422;14.912;2023-08-24T05:20:12;7.43;;;5.63;;
66626;SDS011;53498;50.422;14.912;2023-08-24T05:22:38;8.60;;;5.80;;
66626;SDS011;53498;50.422;14.912;2023-08-24T05:25:04;5.95;;;5.40;;
66626;SDS011;53498;50.422;14.912;2023-08-24T05:27:30;5.57;;;5.03;;
66626;SDS011;53498;50.422;14.912;2023-08-24T05:29:56;9.52;;;5.22;;
66626;SDS011;53498;50.422;14.912;2023-08-24T05:32:22;7.05;;;5.40;;
66626;SDS011;53498;50.422;14.912;2023-08-24T05:34:47;6.50;;;5.43;;
66626;SDS011;53498;50.422;14.912;2023-08-24T05:37:13;6.50;;;4.72;;
66626;SDS011;53498;50.422;14.912;2023-08-24T05:39:39;5.88;;;5.25;;
66626;SDS011;53498;50.422;14.912;2023-08-24T05:42:04;6.57;;;4.82;;
66626;SDS011;53498;50.422;14.912;2023-08-24T05:44:30;6.72;;;5.05;;
66626;SDS011;53498;50.422;14.912;2023-08-24T05:46:56;8.52;;;6.15;;
66626;SDS011;53498;50.422;14.912;2023-08-24T05:49:21;8.55;;;6.10;;
66626;SDS011;53498;50.422;14.912;2023-08-24T05:51:49;12.90;;;7.72;;
66626;SDS011;53498;50.422;14.912;2023-08-24T05:54:16;8.88;;;6.60;;
66626;SDS011;53498;50.422;14.912;2023-08-24T05:56:44;9.02;;;6.72;;
66626;SDS011;53498;50.422;14.912;2023-08-24T05:59:13;9.93;;;7.07;;
66626;SDS011;53498;50.422;14.912;2023-08-24T06:01:39;11.32;;;7.43;;
66626;SDS011;53498;50.422;14.912;2023-08-24T06:04:05;15.35;;;7.75;;
66626;SDS011;53498;50.422;14.912;2023-08-24T06:06:31;12.07;;;7.20;;
66626;SDS011;53498;50.422;14.912;2023-08-24T06:08:57;11.10;;;7.25;;
66626;SDS011;53498;50.422;14.912;2023-08-24T06:11:22;13.73;;;7.53;;
66626;SDS011;53498;50.422;14.912;2023-08-24T06:13:48;16.77;;;9.25;;
66626;SDS011;53498;50.422;14.912;2023-08-24T06:16:18;10.65;;;8.30;;
66626;SDS011;53498;50.422;14.912;2023-08-24T06:18:45;12.13;;;7.78;;
66626;SDS011;53498;50.422;14.912;2023-08-24T06:21:11;13.48;;;7.68;;
66626;SDS011;53498;50.422;14.912;2023-08-24T06:23:37;12.35;;;8.55;;
66626;SDS011;53498;50.422;14.912;2023-08-24T06:26:03;13.05;;;8.45;;
66626;SDS011;53498;50.422;14.912;2023-08-24T06:28:30;13.93;;;8.85;;
66626;SDS011;53498;50.422;14.912;2023-08-24T06:30:56;16.90;;;9.90;;
66626;SDS011;53498;50.422;14.912;2023-08-24T06:33:26;18.13;;;9.70;;
66626;SDS011;53498;50.422;14.912;2023-08-24T06:35:55;17.08;;;9.38;;
66626;SDS011;53498;50.422;14.912;2023-08-24T06:38:22;13.93;;;9.32;;
66626;SDS011;53498;50.422;14.912;2023-08-24T06:40:48;16.17;;;9.02;;
66626;SDS011;53498;50.422;14.912;2023-08-24T06:43:13;22.70;;;10.80;;
66626;SDS011;53498;50.422;14.912;2023-08-24T06:45:43;18.30;;;9.73;;
66626;SDS011;53498;50.422;14.912;2023-08-24T06:48:12;14.77;;;10.43;;
66626;SDS011;53498;50.422;14.912;2023-08-24T06:50:38;22.33;;;9.95;;
66626;SDS011;53498;50.422;14.912;2023-08-24T06:53:04;15.40;;;10.35;;
66626;SDS011;53498;50.422;14.912;2023-08-24T06:55:30;17.90;;;10.13;;
66626;SDS011;53498;50.422;14.912;2023-08-24T06:57:55;17.48;;;9.57;;
66626;SDS011;53498;50.422;14.912;2023-08-24T07:00:21;17.80;;;10.35;;
66626;SDS011;53498;50.422;14.912;2023-08-24T07:02:47;14.02;;;8.65;;
66626;SDS011;53498;50.422;14.912;2023-08-24T07:05:14;16.98;;;9.30;;
66626;SDS011;53498;50.422;14.912;2023-08-24T07:07:40;16.80;;;8.52;;
66626;SDS011;53498;50.422;14.912;2023-08-24T07:10:12;13.80;;;9.32;;
66626;SDS011;53498;50.422;14.912;2023-08-24T07:12:38;19.63;;;10.60;;
66626;SDS011;53498;50.422;14.912;2023-08-24T07:15:09;18.73;;;9.30;;
66626;SDS011;53498;50.422;14.912;2023-08-24T07:17:36;15.80;;;9.02;;
66626;SDS011;53498;50.422;14.912;2023-08-24T07:20:02;14.13;;;8.20;;
66626;SDS011;53498;50.422;14.912;2023-08-24T07:22:30;7.15;;;5.05;;
66626;SDS011;53498;50.422;14.912;2023-08-24T07:24:56;6.47;;;5.10;;
66626;SDS011;53498;50.422;14.912;2023-08-24T07:27:21;7.80;;;4.72;;
66626;SDS011;53498;50.422;14.912;2023-08-24T07:29:47;6.75;;;5.15;;
66626;SDS011;53498;50.422;14.912;2023-08-24T07:32:13;8.73;;;5.43;;
66626;SDS011;53498;50.422;14.912;2023-08-24T07:34:38;9.10;;;5.82;;
66626;SDS011;53498;50.422;14.912;2023-08-24T07:37:04;6.75;;;4.55;;
66626;SDS011;53498;50.422;14.912;2023-08-24T07:39:29;9.48;;;5.95;;
66626;SDS011;53498;50.422;14.912;2023-08-24T07:41:55;6.20;;;4.93;;
66626;SDS011;53498;50.422;14.912;2023-08-24T07:44:20;8.75;;;6.00;;
66626;SDS011;53498;50.422;14.912;2023-08-24T07:46:47;9.48;;;5.53;;
66626;SDS011;53498;50.422;14.912;2023-08-24T07:49:13;7.63;;;4.97;;
66626;SDS011;53498;50.422;14.912;2023-08-24T07:51:39;4.80;;;4.32;;
66626;SDS011;53498;50.422;14.912;2023-08-24T07:54:04;6.55;;;4.78;;
66626;SDS011;53498;50.422;14.912;2023-08-24T07:56:32;7.82;;;4.95;;
66626;SDS011;53498;50.422;14.912;2023-08-24T07:58:58;6.53;;;4.82;;
66626;SDS011;53498;50.422;14.912;2023-08-24T08:01:24;5.80;;;4.95;;
66626;SDS011;53498;50.422;14.912;2023-08-24T08:03:49;7.53;;;5.47;;
66626;SDS011;53498;50.422;14.912;2023-08-24T08:06:15;6.82;;;4.60;;
66626;SDS011;53498;50.422;14.912;2023-08-24T08:08:40;5.88;;;4.57;;
66626;SDS011;53498;50.422;14.912;2023-08-24T08:11:06;7.65;;;5.57;;
66626;SDS011;53498;50.422;14.912;2023-08-24T08:13:32;5.43;;;4.93;;
66626;SDS011;53498;50.422;14.912;2023-08-24T08:16:01;7.30;;;4.90;;
66626;SDS011;53498;50.422;14.912;2023-08-24T08:18:28;8.55;;;5.20;;
66626;SDS011;53498;50.422;14.912;2023-08-24T08:20:55;5.22;;;4.65;;
66626;SDS011;53498;50.422;14.912;2023-08-24T08:23:20;6.93;;;4.97;;
66626;SDS011;53498;50.422;14.912;2023-08-24T08:25:46;5.97;;;4.68;;
66626;SDS011;53498;50.422;14.912;2023-08-24T08:28:11;10.82;;;5.10;;
66626;SDS011;53498;50.422;14.912;2023-08-24T08:30:38;6.20;;;4.30;;
66626;SDS011;53498;50.422;14.912;2023-08-24T08:33:03;7.53;;;4.75;;
66626;SDS011;53498;50.422;14.912;2023-08-24T08:35:30;6.35;;;5.10;;
66626;SDS011;53498;50.422;14.912;2023-08-24T08:37:55;5.45;;;4.65;;
66626;SDS011;53498;50.422;14.912;2023-08-24T08:40:21;7.28;;;4.72;;
66626;SDS011;53498;50.422;14.912;2023-08-24T08:42:50;6.25;;;4.70;;
66626;SDS011;53498;50.422;14.912;2023-08-24T08:45:16;5.18;;;4.60;;
66626;SDS011;53498;50.422;14.912;2023-08-24T08:47:49;5.82;;;4.45;;
66626;SDS011;53498;50.422;14.912;2023-08-24T08:50:15;9.55;;;5.00;;
66626;SDS011;53498;50.422;14.912;2023-08-24T08:52:42;8.32;;;5.13;;
66626;SDS011;53498;50.422;14.912;2023-08-24T08:55:08;9.77;;;5.93;;
66626;SDS011;53498;50.422;14.912;2023-08-24T08:57:36;9.70;;;5.78;;
66626;SDS011;53498;50.422;14.912;2023-08-24T09:00:03;7.32;;;5.88;;
66626;SDS011;53498;50.422;14.912;2023-08-24T09:02:29;10.18;;;7.78;;
66626;SDS011;53498;50.422;14.912;2023-08-24T09:04:57;8.90;;;6.18;;
66626;SDS011;53498;50.422;14.912;2023-08-24T09:07:23;11.02;;;6.78;;
66626;SDS011;53498;50.422;14.912;2023-08-24T09:09:49;9.88;;;6.45;;
66626;SDS011;53498;50.422;14.912;2023-08-24T09:12:15;10.90;;;5.97;;
66626;SDS011;53498;50.422;14.912;2023-08-24T09:14:41;9.75;;;6.38;;
66626;SDS011;53498;50.422;14.912;2023-08-24T09:17:07;9.82;;;6.10;;
66626;SDS011;53498;50.422;14.912;2023-08-24T09:19:33;11.90;;;8.00;;
66626;SDS011;53498;50.422;14.912;2023-08-24T09:22:03;11.13;;;7.20;;
66626;SDS011;53498;50.422;14.912;2023-08-24T09:24:32;12.60;;;6.95;;
66626;SDS011;53498;50.422;14.912;2023-08-24T09:26:59;7.90;;;5.60;;
66626;SDS011;53498;50.422;14.912;2023-08-24T09:29:25;7.15;;;5.47;;
66626;SDS011;53498;50.422;14.912;2023-08-24T09:31:51;5.82;;;5.03;;
66626;SDS011;53498;50.422;14.912;2023-08-24T09:34:20;7.05;;;4.13;;
66626;SDS011;53498;50.422;14.912;2023-08-24T09:36:48;6.78;;;4.13;;
66626;SDS011;53498;50.422;14.912;2023-08-24T09:39:16;4.82;;;3.10;;
66626;SDS011;53498;50.422;14.912;2023-08-24T09:41:46;4.60;;;3.90;;
66626;SDS011;53498;50.422;14.912;2023-08-24T09:44:14;7.60;;;3.92;;
66626;SDS011;53498;50.422;14.912;2023-08-24T09:46:40;6.88;;;4.20;;
66626;SDS011;53498;50.422;14.912;2023-08-24T09:49:07;6.30;;;4.70;;
66626;SDS011;53498;50.422;14.912;2023-08-24T09:51:34;5.90;;;4.55;;
66626;SDS011;53498;50.422;14.912;2023-08-24T09:54:02;6.35;;;4.38;;
66626;SDS011;53498;50.422;14.912;2023-08-24T09:56:34;7.90;;;4.60;;
66626;SDS011;53498;50.422;14.912;2023-08-24T09:59:15;5.75;;;3.92;;
66626;SDS011;53498;50.422;14.912;2023-08-24T10:01:47;5.35;;;4.00;;
66626;SDS011;53498;50.422;14.912;2023-08-24T10:04:15;8.55;;;4.07;;
66626;SDS011;53498;50.422;14.912;2023-08-24T10:06:42;6.25;;;3.97;;
66626;SDS011;53498;50.422;14.912;2023-08-24T10:09:21;5.82;;;4.50;;
66626;SDS011;53498;50.422;14.912;2023-08-24T10:11:52;5.45;;;4.28;;
66626;SDS011;53498;50.422;14.912;2023-08-24T10:14:25;5.38;;;4.10;;
66626;SDS011;53498;50.422;14.912;2023-08-24T10:16:54;4.75;;;3.80;;
66626;SDS011;53498;50.422;14.912;2023-08-24T10:19:21;5.82;;;5.13;;
66626;SDS011;53498;50.422;14.912;2023-08-24T10:21:48;4.60;;;4.20;;
66626;SDS011;53498;50.422;14.912;2023-08-24T10:24:16;5.65;;;3.90;;
66626;SDS011;53498;50.422;14.912;2023-08-24T10:26:42;6.00;;;4.10;;
66626;SDS011;53498;50.422;14.912;2023-08-24T10:29:08;4.07;;;3.67;;
66626;SDS011;53498;50.422;14.912;2023-08-24T10:31:34;7.22;;;4.63;;
66626;SDS011;53498;50.422;14.912;2023-08-24T10:34:00;5.63;;;3.88;;
66626;SDS011;53498;50.422;14.912;2023-08-24T10:36:27;6.43;;;4.18;;
66626;SDS011;53498;50.422;14.912;2023-08-24T10:38:57;5.85;;;4.53;;
66626;SDS011;53498;50.422;14.912;2023-08-24T10:41:38;4.28;;;3.88;;
66626;SDS011;53498;50.422;14.912;2023-08-24T10:44:13;4.78;;;4.10;;
66626;SDS011;53498;50.422;14.912;2023-08-24T10:47:04;5.22;;;4.28;;
66626;SDS011;53498;50.422;14.912;2023-08-24T10:49:41;5.70;;;4.50;;
66626;SDS011;53498;50.422;14.912;2023-08-24T10:52:17;7.57;;;4.50;;
66626;SDS011;53498;50.422;14.912;2023-08-24T10:54:48;4.63;;;3.95;;
66626;SDS011;53498;50.422;14.912;2023-08-24T10:57:18;7.05;;;4.68;;
66626;SDS011;53498;50.422;14.912;2023-08-24T11:00:03;4.60;;;3.83;;
66626;SDS011;53498;50.422;14.912;2023-08-24T11:02:49;5.50;;;4.45;;
66626;SDS011;53498;50.422;14.912;2023-08-24T11:05:17;5.57;;;4.30;;
66626;SDS011;53498;50.422;14.912;2023-08-24T11:07:51;5.72;;;4.68;;
66626;SDS011;53498;50.422;14.912;2023-08-24T11:10:19;4.75;;;4.18;;
66626;SDS011;53498;50.422;14.912;2023-08-24T11:15:29;5.65;;;4.43;;
66626;SDS011;53498;50.422;14.912;2023-08-24T11:20:50;5.40;;;4.63;;
66626;SDS011;53498;50.422;14.912;2023-08-24T11:23:25;5.18;;;4.50;;
66626;SDS011;53498;50.422;14.912;2023-08-24T11:25:52;5.47;;;4.82;;
66626;SDS011;53498;50.422;14.912;2023-08-24T11:28:23;8.43;;;4.68;;
66626;SDS011;53498;50.422;14.912;2023-08-24T11:30:51;6.47;;;4.82;;
66626;SDS011;53498;50.422;14.912;2023-08-24T11:33:17;5.72;;;4.75;;
66626;SDS011;53498;50.422;14.912;2023-08-24T11:35:52;5.63;;;4.53;;
66626;SDS011;53498;50.422;14.912;2023-08-24T11:38:18;6.95;;;4.50;;
66626;SDS011;53498;50.422;14.912;2023-08-24T11:40:44;8.57;;;5.25;;
66626;SDS011;53498;50.422;14.912;2023-08-24T11:43:09;5.53;;;4.40;;
66626;SDS011;53498;50.422;14.912;2023-08-24T11:45:35;5.75;;;4.47;;
66626;SDS011;53498;50.422;14.912;2023-08-24T11:48:02;4.78;;;4.30;;
66626;SDS011;53498;50.422;14.912;2023-08-24T11:50:32;4.57;;;3.83;;
66626;SDS011;53498;50.422;14.912;2023-08-24T11:53:00;5.68;;;4.43;;
66626;SDS011;53498;50.422;14.912;2023-08-24T11:55:26;7.15;;;4.78;;
66626;SDS011;53498;50.422;14.912;2023-08-24T11:57:52;4.90;;;4.38;;
66626;SDS011;53498;50.422;14.912;2023-08-24T12:00:21;4.85;;;4.32;;
66626;SDS011;53498;50.422;14.912;2023-08-24T12:02:47;6.25;;;4.35;;
66626;SDS011;53498;50.422;14.912;2023-08-24T12:05:20;7.47;;;4.10;;
66626;SDS011;53498;50.422;14.912;2023-08-24T12:07:52;7.60;;;4.45;;
66626;SDS011;53498;50.422;14.912;2023-08-24T12:10:19;5.22;;;4.82;;
66626;SDS011;53498;50.422;14.912;2023-08-24T12:12:45;6.38;;;4.88;;
66626;SDS011;53498;50.422;14.912;2023-08-24T12:15:14;5.03;;;4.05;;
66626;SDS011;53498;50.422;14.912;2023-08-24T12:17:42;4.78;;;4.25;;
66626;SDS011;53498;50.422;14.912;2023-08-24T12:20:17;6.18;;;4.57;;
66626;SDS011;53498;50.422;14.912;2023-08-24T12:22:49;5.43;;;4.00;;
66626;SDS011;53498;50.422;14.912;2023-08-24T12:25:16;6.15;;;4.28;;
66626;SDS011;53498;50.422;14.912;2023-08-24T12:27:42;6.03;;;4.80;;
66626;SDS011;53498;50.422;14.912;2023-08-24T12:30:07;5.45;;;4.22;;
66626;SDS011;53498;50.422;14.912;2023-08-24T12:32:48;5.03;;;4.60;;
66626;SDS011;53498;50.422;14.912;2023-08-24T12:35:16;4.88;;;4.35;;
66626;SDS011;53498;50.422;14.912;2023-08-24T12:37:41;6.90;;;4.53;;
66626;SDS011;53498;50.422;14.912;2023-08-24T12:40:07;5.05;;;3.80;;
66626;SDS011;53498;50.422;14.912;2023-08-24T12:42:33;4.53;;;3.83;;
66626;SDS011;53498;50.422;14.912;2023-08-24T12:44:59;5.47;;;4.10;;
66626;SDS011;53498;50.422;14.912;2023-08-24T12:47:25;5.43;;;4.10;;
66626;SDS011;53498;50.422;14.912;2023-08-24T12:49:51;9.10;;;4.50;;
66626;SDS011;53498;50.422;14.912;2023-08-24T12:52:19;4.95;;;4.00;;
66626;SDS011;53498;50.422;14.912;2023-08-24T12:54:45;4.95;;;4.15;;
66626;SDS011;53498;50.422;14.912;2023-08-24T12:57:10;5.53;;;3.85;;
66626;SDS011;53498;50.422;14.912;2023-08-24T12:59:36;4.25;;;3.85;;
66626;SDS011;53498;50.422;14.912;2023-08-24T13:02:02;7.13;;;3.83;;
66626;SDS011;53498;50.422;14.912;2023-08-24T13:04:29;4.60;;;4.20;;
66626;SDS011;53498;50.422;14.912;2023-08-24T13:06:57;5.95;;;4.47;;
66626;SDS011;53498;50.422;14.912;2023-08-24T13:09:23;6.45;;;4.20;;
66626;SDS011;53498;50.422;14.912;2023-08-24T13:11:49;6.10;;;4.47;;
66626;SDS011;53498;50.422;14.912;2023-08-24T13:14:14;4.60;;;4.20;;
66626;SDS011;53498;50.422;14.912;2023-08-24T13:16:40;5.07;;;4.03;;
66626;SDS011;53498;50.422;14.912;2023-08-24T13:19:08;8.00;;;4.55;;
66626;SDS011;53498;50.422;14.912;2023-08-24T13:21:34;5.50;;;4.18;;
66626;SDS011;53498;50.422;14.912;2023-08-24T13:24:00;6.35;;;4.22;;
66626;SDS011;53498;50.422;14.912;2023-08-24T13:26:25;4.82;;;3.97;;
66626;SDS011;53498;50.422;14.912;2023-08-24T13:28:51;6.60;;;4.63;;
66626;SDS011;53498;50.422;14.912;2023-08-24T13:31:17;5.38;;;4.15;;
66626;SDS011;53498;50.422;14.912;2023-08-24T13:33:43;7.10;;;4.68;;
66626;SDS011;53498;50.422;14.912;2023-08-24T13:36:11;6.60;;;4.38;;
66626;SDS011;53498;50.422;14.912;2023-08-24T13:38:37;7.68;;;4.18;;
66626;SDS011;53498;50.422;14.912;2023-08-24T13:41:03;4.93;;;4.32;;
66626;SDS011;53498;50.422;14.912;2023-08-24T13:43:31;7.38;;;4.10;;
66626;SDS011;53498;50.422;14.912;2023-08-24T13:45:57;4.40;;;3.95;;
66626;SDS011;53498;50.422;14.912;2023-08-24T13:48:23;5.28;;;4.15;;
66626;SDS011;53498;50.422;14.912;2023-08-24T13:50:50;7.57;;;4.88;;
66626;SDS011;53498;50.422;14.912;2023-08-24T13:53:19;5.57;;;4.22;;
66626;SDS011;53498;50.422;14.912;2023-08-24T13:55:45;4.28;;;3.80;;
66626;SDS011;53498;50.422;14.912;2023-08-24T13:58:11;6.97;;;4.53;;
66626;SDS011;53498;50.422;14.912;2023-08-24T14:00:36;4.57;;;4.18;;
66626;SDS011;53498;50.422;14.912;2023-08-24T14:03:02;4.47;;;4.07;;
66626;SDS011;53498;50.422;14.912;2023-08-24T14:05:29;4.75;;;4.15;;
66626;SDS011;53498;50.422;14.912;2023-08-24T14:07:55;3.90;;;3.58;;
66626;SDS011;53498;50.422;14.912;2023-08-24T14:10:20;6.15;;;4.10;;
66626;SDS011;53498;50.422;14.912;2023-08-24T14:12:46;5.00;;;4.50;;
66626;SDS011;53498;50.422;14.912;2023-08-24T14:15:11;4.35;;;3.95;;
66626;SDS011;53498;50.422;14.912;2023-08-24T14:17:37;4.57;;;4.03;;
66626;SDS011;53498;50.422;14.912;2023-08-24T14:20:03;5.43;;;3.53;;
66626;SDS011;53498;50.422;14.912;2023-08-24T14:22:29;4.25;;;3.85;;
66626;SDS011;53498;50.422;14.912;2023-08-24T14:24:55;4.93;;;4.10;;
66626;SDS011;53498;50.422;14.912;2023-08-24T14:27:21;4.65;;;4.07;;
66626;SDS011;53498;50.422;14.912;2023-08-24T14:29:46;5.30;;;4.10;;
66626;SDS011;53498;50.422;14.912;2023-08-24T14:32:12;4.68;;;4.25;;
66626;SDS011;53498;50.422;14.912;2023-08-24T14:34:38;6.88;;;3.80;;
66626;SDS011;53498;50.422;14.912;2023-08-24T14:37:03;5.05;;;4.40;;
66626;SDS011;53498;50.422;14.912;2023-08-24T14:39:29;4.53;;;3.70;;
66626;SDS011;53498;50.422;14.912;2023-08-24T14:41:54;5.97;;;4.63;;
66626;SDS011;53498;50.422;14.912;2023-08-24T14:44:20;4.78;;;4.13;;